Time;durP1;ratioP1;P1;durP2;ratioP2;P2;SDS_P1;SDS_P2;PMS_P1;PMS_P2;Temp;Humidity;BMP_temperature;BMP_pressure;BME280_temperature;BME280_humidity;BME280_pressure;Samples;Min_cycle;Max_cycle;Signal;HPM_P1;HPM_P2
2021/05/01 00:00:07;;;;;;;11.38;7.38;;;8.90;91.30;;;;;;5070243;28;20041;-72
2021/05/01 00:02:37;;;;;;;8.70;6.13;;;8.90;91.30;;;;;;5069021;28;20110;-71
2021/05/01 00:05:05;;;;;;;10.52;6.65;;;8.80;91.30;;;;;;5071076;28;20045;-72
2021/05/01 00:07:32;;;;;;;10.05;5.90;;;8.80;91.30;;;;;;5070742;28;20388;-71
2021/05/01 00:09:58;;;;;;;10.25;5.93;;;8.90;91.30;;;;;;5069551;28;20484;-71
2021/05/01 00:12:25;;;;;;;10.43;6.07;;;8.90;91.30;;;;;;5052189;28;20044;-71
2021/05/01 00:14:52;;;;;;;9.57;6.28;;;8.90;91.30;;;;;;5070471;28;20055;-71
2021/05/01 00:17:18;;;;;;;6.70;4.68;;;8.90;91.30;;;;;;5071172;28;20122;-71
2021/05/01 00:19:45;;;;;;;10.93;5.30;;;8.90;91.30;;;;;;5069811;28;20041;-71
2021/05/01 00:22:11;;;;;;;9.10;5.13;;;8.90;91.30;;;;;;5062807;28;20048;-71
2021/05/01 00:24:38;;;;;;;6.90;4.40;;;8.90;91.30;;;;;;5070747;28;20060;-71
2021/05/01 00:27:05;;;;;;;9.65;6.65;;;8.90;91.30;;;;;;5069221;28;20044;-71
2021/05/01 00:29:33;;;;;;;10.23;6.03;;;8.90;91.20;;;;;;5072815;28;20066;-71
2021/05/01 00:31:59;;;;;;;7.72;5.57;;;8.90;91.20;;;;;;5074093;28;20098;-71
2021/05/01 00:34:26;;;;;;;9.02;6.05;;;8.80;91.30;;;;;;5072726;28;20052;-71
2021/05/01 00:36:52;;;;;;;7.78;5.03;;;8.80;91.30;;;;;;5076916;28;20439;-71
2021/05/01 00:39:19;;;;;;;9.98;5.30;;;8.80;91.30;;;;;;5073031;28;20040;-71
2021/05/01 00:41:46;;;;;;;11.30;6.80;;;8.80;91.20;;;;;;5075996;28;20380;-71
2021/05/01 00:44:13;;;;;;;11.68;7.03;;;8.80;91.20;;;;;;5072865;28;20556;-71
2021/05/01 00:46:39;;;;;;;12.45;8.05;;;8.70;91.20;;;;;;5055878;28;20386;-71
2021/05/01 00:49:06;;;;;;;14.40;8.68;;;8.70;91.20;;;;;;5073296;28;20496;-71
2021/05/01 00:51:33;;;;;;;15.23;9.73;;;8.60;91.10;;;;;;5074249;28;20488;-71
2021/05/01 00:54:00;;;;;;;11.32;7.28;;;8.50;91.10;;;;;;5072769;28;20407;-71
2021/05/01 00:56:27;;;;;;;12.88;8.45;;;8.50;91.20;;;;;;5074175;28;20093;-71
2021/05/01 00:58:54;;;;;;;11.30;7.88;;;8.50;91.20;;;;;;5073824;28;20485;-71
2021/05/01 01:01:23;;;;;;;12.57;7.43;;;8.50;91.30;;;;;;5038179;28;20059;-71
2021/05/01 01:03:49;;;;;;;9.80;6.78;;;8.50;91.30;;;;;;5058532;28;20041;-72
2021/05/01 01:06:16;;;;;;;9.48;6.88;;;8.50;91.30;;;;;;5071970;28;20068;-71
2021/05/01 01:08:44;;;;;;;9.93;6.50;;;8.50;91.20;;;;;;5072813;28;20549;-71
2021/05/01 01:11:11;;;;;;;8.55;6.57;;;8.60;91.20;;;;;;5073587;28;20048;-71
2021/05/01 01:14:00;;;;;;;12.63;7.85;;;8.60;91.20;;;;;;5067581;28;20049;-72
2021/05/01 01:16:30;;;;;;;12.63;9.05;;;8.50;91.10;;;;;;5064769;28;20072;-71
2021/05/01 01:18:58;;;;;;;12.93;8.52;;;8.50;91.10;;;;;;5073385;28;20492;-71
2021/05/01 01:21:26;;;;;;;9.52;7.15;;;8.50;91.10;;;;;;5071961;28;20048;-71
2021/05/01 01:23:53;;;;;;;10.07;6.70;;;8.40;91.20;;;;;;5073478;28;20037;-71
2021/05/01 01:26:19;;;;;;;9.80;6.07;;;8.40;91.20;;;;;;5073478;28;20499;-71
2021/05/01 01:28:47;;;;;;;9.85;6.47;;;8.30;91.20;;;;;;5073490;28;20040;-71
2021/05/01 01:31:14;;;;;;;10.80;6.32;;;8.30;91.30;;;;;;5071540;28;20048;-71
2021/05/01 01:33:41;;;;;;;10.45;7.35;;;8.30;91.30;;;;;;5073439;28;20036;-71
2021/05/01 01:36:08;;;;;;;9.13;6.07;;;8.20;91.30;;;;;;5071871;28;20045;-73
2021/05/01 01:38:35;;;;;;;12.75;7.65;;;8.20;91.30;;;;;;5073170;28;20040;-73
2021/05/01 01:41:01;;;;;;;11.17;7.80;;;8.10;91.50;;;;;;5071558;28;20113;-73
2021/05/01 01:43:28;;;;;;;10.65;7.47;;;8.10;91.30;;;;;;5072829;28;20040;-73
2021/05/01 01:45:55;;;;;;;10.60;7.53;;;8.10;91.40;;;;;;5072050;28;20059;-73
2021/05/01 01:48:21;;;;;;;11.10;7.70;;;8.10;91.30;;;;;;5071835;28;20037;-73
2021/05/01 01:50:48;;;;;;;9.00;6.10;;;8.00;91.30;;;;;;5072799;28;20550;-73
2021/05/01 01:53:14;;;;;;;10.52;7.00;;;8.00;91.40;;;;;;5072670;28;20044;-73
2021/05/01 01:55:41;;;;;;;10.73;6.38;;;8.10;91.40;;;;;;5073010;28;20055;-73
2021/05/01 01:58:08;;;;;;;9.50;5.85;;;8.00;91.40;;;;;;5073038;28;20107;-73
2021/05/01 02:00:35;;;;;;;9.75;5.85;;;8.00;91.40;;;;;;5072751;28;20051;-73
2021/05/01 02:03:02;;;;;;;9.75;6.00;;;8.00;91.40;;;;;;5073318;28;20048;-73
2021/05/01 02:05:30;;;;;;;8.68;5.63;;;8.00;91.40;;;;;;5072621;28;20033;-73
2021/05/01 02:07:57;;;;;;;9.23;5.27;;;8.00;91.40;;;;;;5071440;28;20094;-73
2021/05/01 02:10:24;;;;;;;7.85;4.90;;;8.00;91.50;;;;;;5058537;28;20048;-73
2021/05/01 02:12:51;;;;;;;10.53;5.57;;;8.00;91.50;;;;;;5071425;28;20044;-73
2021/05/01 02:15:20;;;;;;;7.50;4.50;;;8.00;91.40;;;;;;5071714;28;20052;-74
2021/05/01 02:17:53;;;;;;;8.03;5.57;;;8.00;91.50;;;;;;5072641;28;20044;-73
2021/05/01 02:20:25;;;;;;;8.00;4.95;;;8.00;91.50;;;;;;5070817;28;20389;-73
2021/05/01 02:22:52;;;;;;;8.77;4.40;;;8.00;91.50;;;;;;5057126;28;20480;-73
2021/05/01 02:25:20;;;;;;;6.28;4.35;;;8.00;91.50;;;;;;5071211;28;20427;-71
2021/05/01 02:27:47;;;;;;;6.95;4.63;;;7.90;91.50;;;;;;5070703;28;20110;-71
2021/05/01 02:30:16;;;;;;;6.28;4.57;;;7.90;91.50;;;;;;5070827;28;20037;-71
2021/05/01 02:32:43;;;;;;;7.00;4.35;;;7.80;91.50;;;;;;5070492;28;20795;-71
2021/05/01 02:35:12;;;;;;;6.93;4.33;;;7.80;91.60;;;;;;5051964;28;20072;-71
2021/05/01 02:37:39;;;;;;;7.00;3.70;;;7.80;91.60;;;;;;5070044;28;20044;-71
2021/05/01 02:40:08;;;;;;;8.70;4.53;;;7.70;91.60;;;;;;5049791;28;20045;-71
2021/05/01 02:42:35;;;;;;;6.70;3.70;;;7.70;91.60;;;;;;5064519;28;20033;-71
2021/05/01 02:45:03;;;;;;;7.93;4.85;;;7.70;91.60;;;;;;5050776;28;20051;-71
2021/05/01 02:47:30;;;;;;;7.32;4.55;;;7.70;91.60;;;;;;5063722;28;20455;-71
2021/05/01 02:49:57;;;;;;;6.28;3.88;;;7.70;91.70;;;;;;5071672;28;20044;-71
2021/05/01 02:52:24;;;;;;;6.03;3.92;;;7.60;91.60;;;;;;5071924;28;20515;-71
2021/05/01 02:54:51;;;;;;;8.03;4.27;;;7.60;91.70;;;;;;5071537;28;20048;-71
2021/05/01 02:57:17;;;;;;;7.43;3.80;;;7.50;91.70;;;;;;5071617;28;20055;-71
2021/05/01 02:59:44;;;;;;;7.03;4.27;;;7.50;91.70;;;;;;5070230;28;20099;-71
2021/05/01 03:02:10;;;;;;;5.83;3.43;;;7.40;91.70;;;;;;5070118;28;20044;-71
2021/05/01 03:04:36;;;;;;;5.28;3.15;;;7.40;91.80;;;;;;5050618;28;20560;-71
2021/05/01 03:07:03;;;;;;;7.57;3.65;;;7.40;91.80;;;;;;5069679;28;20045;-71
2021/05/01 03:09:31;;;;;;;5.18;3.42;;;7.30;91.90;;;;;;5053887;28;20044;-71
2021/05/01 03:11:57;;;;;;;5.07;3.03;;;7.40;91.90;;;;;;5071459;28;20106;-71
2021/05/01 03:14:27;;;;;;;7.18;4.40;;;7.40;91.90;;;;;;5071392;28;20093;-71
2021/05/01 03:16:53;;;;;;;7.72;3.90;;;7.40;91.90;;;;;;5071368;28;20044;-71
2021/05/01 03:19:21;;;;;;;8.30;4.30;;;7.40;91.80;;;;;;5053568;28;20063;-71
2021/05/01 03:21:47;;;;;;;7.10;4.47;;;7.40;91.80;;;;;;5069970;28;20048;-71
2021/05/01 03:24:14;;;;;;;6.13;3.60;;;7.30;92.00;;;;;;5070238;28;20044;-71
2021/05/01 03:26:40;;;;;;;7.57;3.85;;;7.30;91.80;;;;;;5071485;28;20068;-71
2021/05/01 03:29:07;;;;;;;5.70;3.88;;;7.20;91.80;;;;;;5069846;28;20086;-71
2021/05/01 03:31:33;;;;;;;5.80;3.40;;;7.10;91.80;;;;;;5050119;28;20378;-71
2021/05/01 03:34:00;;;;;;;6.57;4.63;;;7.10;91.90;;;;;;5065519;28;20048;-71
2021/05/01 03:36:27;;;;;;;5.50;4.10;;;7.00;92.20;;;;;;5070992;28;20120;-71
2021/05/01 03:38:53;;;;;;;6.63;4.30;;;7.00;91.90;;;;;;5069779;28;20045;-71
2021/05/01 03:41:20;;;;;;;6.10;4.33;;;7.00;91.90;;;;;;5069728;28;20102;-71
2021/05/01 03:43:46;;;;;;;5.85;4.10;;;6.90;91.90;;;;;;5069764;28;20037;-71
2021/05/01 03:46:13;;;;;;;6.47;3.58;;;6.90;92.00;;;;;;5070134;28;20558;-71
2021/05/01 03:48:39;;;;;;;6.40;4.07;;;6.80;92.00;;;;;;5069810;28;20074;-71
2021/05/01 03:51:06;;;;;;;7.63;4.43;;;6.80;92.00;;;;;;5036710;28;20424;-71
2021/05/01 03:53:33;;;;;;;5.97;3.80;;;6.80;92.00;;;;;;5069629;28;20041;-71
2021/05/01 03:55:59;;;;;;;6.00;3.80;;;6.80;92.00;;;;;;5074102;28;20098;-71
2021/05/01 03:58:25;;;;;;;9.65;5.10;;;6.70;92.00;;;;;;5073896;28;20068;-71
2021/05/01 04:00:52;;;;;;;7.68;5.00;;;6.70;92.10;;;;;;5073889;28;20044;-71
2021/05/01 04:03:19;;;;;;;7.20;4.90;;;6.70;92.10;;;;;;5075039;28;20035;-71
2021/05/01 04:05:45;;;;;;;7.20;4.93;;;6.60;92.10;;;;;;5075023;28;20032;-71
2021/05/01 04:08:12;;;;;;;10.10;5.23;;;6.60;92.10;;;;;;5073213;28;20137;-71
2021/05/01 04:10:38;;;;;;;8.40;5.53;;;6.60;92.10;;;;;;5073505;28;20029;-71
2021/05/01 04:13:05;;;;;;;9.33;5.50;;;6.50;92.10;;;;;;5073738;28;20044;-70
2021/05/01 04:15:31;;;;;;;8.43;4.60;;;6.50;92.10;;;;;;5074527;28;20040;-71
2021/05/01 04:17:58;;;;;;;6.78;4.65;;;6.50;92.20;;;;;;5073213;28;20048;-71
2021/05/01 04:20:24;;;;;;;7.20;5.03;;;6.50;92.20;;;;;;5074635;28;20536;-71
2021/05/01 04:22:51;;;;;;;9.10;6.10;;;6.50;92.20;;;;;;5074560;28;20090;-71
2021/05/01 04:25:18;;;;;;;7.87;5.17;;;6.40;92.20;;;;;;5073286;28;20036;-71
2021/05/01 04:27:45;;;;;;;8.77;6.03;;;6.40;92.20;;;;;;5040088;28;20098;-71
2021/05/01 04:30:13;;;;;;;8.83;5.60;;;6.40;92.20;;;;;;5073944;28;20507;-71
2021/05/01 04:32:40;;;;;;;9.03;5.53;;;6.40;92.20;;;;;;5074172;28;20036;-71
2021/05/01 04:35:07;;;;;;;8.43;5.80;;;6.40;92.20;;;;;;5074108;28;20040;-71
2021/05/01 04:37:33;;;;;;;8.23;5.80;;;6.40;92.20;;;;;;5073887;28;20048;-71
2021/05/01 04:40:00;;;;;;;9.63;4.93;;;6.30;92.10;;;;;;5073881;28;20102;-70
2021/05/01 04:42:27;;;;;;;11.40;7.57;;;6.40;92.20;;;;;;5074449;28;20037;-71
2021/05/01 04:44:54;;;;;;;10.37;6.50;;;6.40;92.40;;;;;;5072820;28;20525;-71
2021/05/01 04:47:20;;;;;;;15.77;8.77;;;6.40;92.20;;;;;;5074065;28;20052;-71
2021/05/01 04:49:47;;;;;;;10.47;7.80;;;6.40;92.20;;;;;;5073571;28;20052;-71
2021/05/01 04:52:14;;;;;;;10.97;7.10;;;6.40;92.20;;;;;;5074154;28;20066;-71
2021/05/01 04:54:40;;;;;;;11.33;7.20;;;6.30;92.20;;;;;;5055886;28;20040;-71
2021/05/01 04:57:07;;;;;;;11.30;7.70;;;6.40;92.20;;;;;;5074217;28;20044;-70
2021/05/01 04:59:35;;;;;;;9.07;6.07;;;6.40;92.20;;;;;;5074046;28;20377;-71
2021/05/01 05:02:02;;;;;;;9.13;6.60;;;6.40;92.20;;;;;;5072217;28;20048;-71
2021/05/01 05:04:28;;;;;;;9.67;6.63;;;6.40;92.20;;;;;;5055674;28;20381;-71
2021/05/01 05:06:55;;;;;;;9.53;5.77;;;6.40;92.20;;;;;;5054901;28;20126;-70
2021/05/01 05:09:22;;;;;;;11.63;6.53;;;6.40;92.20;;;;;;5053067;28;20051;-71
2021/05/01 05:11:48;;;;;;;9.73;6.60;;;6.40;92.20;;;;;;5071262;28;20041;-71
2021/05/01 05:14:15;;;;;;;10.37;7.43;;;6.40;92.10;;;;;;5052262;28;20184;-70
2021/05/01 05:16:41;;;;;;;9.83;6.73;;;6.40;92.10;;;;;;5072112;28;20093;-70
2021/05/01 05:19:08;;;;;;;9.40;6.17;;;6.50;92.10;;;;;;5073479;28;20780;-71
2021/05/01 05:21:35;;;;;;;10.73;7.50;;;6.50;92.10;;;;;;5052295;28;20404;-71
2021/05/01 05:24:04;;;;;;;8.70;6.20;;;6.50;92.10;;;;;;5071183;28;20134;-71
2021/05/01 05:26:31;;;;;;;8.90;6.57;;;6.50;92.10;;;;;;5054911;28;20052;-71
2021/05/01 05:28:57;;;;;;;9.73;6.57;;;6.50;92.10;;;;;;5073427;28;20046;-71
2021/05/01 05:31:24;;;;;;;10.40;7.47;;;6.60;92.10;;;;;;5072973;28;20033;-71
2021/05/01 05:33:51;;;;;;;10.67;7.43;;;6.60;92.10;;;;;;5072156;28;20052;-71
2021/05/01 05:36:18;;;;;;;13.30;8.20;;;6.60;92.00;;;;;;5072558;28;20047;-71
2021/05/01 05:38:45;;;;;;;12.00;8.07;;;6.60;92.00;;;;;;5071903;28;20058;-71
2021/05/01 05:41:11;;;;;;;11.87;8.30;;;6.70;92.00;;;;;;5070821;28;20557;-71
2021/05/01 05:43:38;;;;;;;10.87;7.90;;;6.80;92.00;;;;;;5071644;28;20086;-71
2021/05/01 05:46:14;;;;;;;13.20;8.43;;;6.80;91.90;;;;;;5073224;28;20041;-71
2021/05/01 05:48:41;;;;;;;12.13;7.97;;;6.80;91.90;;;;;;5071266;28;20045;-71
2021/05/01 05:51:09;;;;;;;10.97;7.03;;;6.90;91.90;;;;;;5072429;28;20060;-71
2021/05/01 05:53:36;;;;;;;11.40;7.63;;;6.90;91.90;;;;;;5052202;28;20056;-73
2021/05/01 05:56:03;;;;;;;11.63;7.80;;;7.00;91.90;;;;;;5071986;28;20053;-73
2021/05/01 05:58:30;;;;;;;12.17;9.23;;;7.00;91.80;;;;;;5073805;28;20036;-74
2021/05/01 06:00:57;;;;;;;13.00;9.37;;;7.10;91.80;;;;;;5073093;28;20048;-74
2021/05/01 06:03:24;;;;;;;10.82;7.90;;;7.10;91.70;;;;;;5071305;28;20127;-71
2021/05/01 06:05:57;;;;;;;12.80;8.60;;;7.20;91.70;;;;;;5071071;28;20036;-70
2021/05/01 06:08:24;;;;;;;14.13;9.32;;;7.20;91.70;;;;;;5071836;28;20056;-70
2021/05/01 06:10:51;;;;;;;15.33;10.03;;;7.30;91.70;;;;;;5051422;28;20037;-70
2021/05/01 06:13:20;;;;;;;14.93;9.33;;;7.40;91.70;;;;;;5083551;28;20056;-71
2021/05/01 06:15:47;;;;;;;13.37;8.70;;;7.40;91.60;;;;;;5069363;28;20503;-73
2021/05/01 06:18:18;;;;;;;15.98;10.48;;;7.50;91.60;;;;;;5071628;28;20048;-73
2021/05/01 06:20:45;;;;;;;12.63;8.83;;;7.60;91.50;;;;;;5070404;28;20050;-74
2021/05/01 06:23:12;;;;;;;14.20;10.15;;;7.70;91.50;;;;;;5055047;28;20152;-73
2021/05/01 06:25:39;;;;;;;14.88;10.30;;;7.70;91.40;;;;;;5072752;28;20060;-73
2021/05/01 06:28:05;;;;;;;15.80;10.10;;;7.80;91.40;;;;;;5071213;28;20458;-73
2021/05/01 06:30:35;;;;;;;15.97;11.27;;;7.80;91.40;;;;;;5072482;28;20040;-73
2021/05/01 06:33:03;;;;;;;16.30;11.07;;;7.90;91.40;;;;;;5071340;28;20048;-73
2021/05/01 06:35:30;;;;;;;13.77;9.43;;;8.00;91.30;;;;;;5071453;28;20044;-73
2021/05/01 06:37:56;;;;;;;15.57;9.55;;;8.10;91.30;;;;;;5053943;28;20102;-73
2021/05/01 06:40:30;;;;;;;14.07;10.00;;;8.10;91.30;;;;;;5072327;28;20041;-73
2021/05/01 06:43:02;;;;;;;14.55;10.40;;;8.20;91.30;;;;;;5071238;28;20493;-73
2021/05/01 06:45:34;;;;;;;15.00;10.60;;;8.30;91.20;;;;;;5070972;28;20098;-70
2021/05/01 06:48:03;;;;;;;18.23;11.10;;;8.30;91.10;;;;;;5070388;28;20037;-71
2021/05/01 06:50:32;;;;;;;17.15;11.45;;;8.40;91.10;;;;;;5070963;28;20074;-70
2021/05/01 06:52:59;;;;;;;15.65;10.88;;;8.40;91.10;;;;;;5070311;28;20048;-70
2021/05/01 06:55:28;;;;;;;18.95;10.57;;;8.50;91.10;;;;;;5051017;28;20451;-70
2021/05/01 06:57:55;;;;;;;15.95;10.82;;;8.60;91.00;;;;;;5064296;28;20044;-70
2021/05/01 07:00:25;;;;;;;16.00;10.75;;;8.60;91.00;;;;;;5067169;28;20563;-70
2021/05/01 07:03:06;;;;;;;16.38;11.32;;;8.80;90.90;;;;;;5071229;28;20044;-70
2021/05/01 07:05:34;;;;;;;13.50;9.52;;;8.90;90.90;;;;;;5071916;28;20115;-70
2021/05/01 07:08:01;;;;;;;14.25;9.57;;;8.90;90.80;;;;;;5070293;28;20048;-70
2021/05/01 07:10:28;;;;;;;13.07;9.55;;;9.00;90.80;;;;;;5071692;28;20044;-70
2021/05/01 07:12:55;;;;;;;14.13;8.48;;;9.20;90.70;;;;;;5070703;28;20097;-70
2021/05/01 07:15:21;;;;;;;11.27;8.10;;;9.30;90.70;;;;;;5071527;28;20048;-70
2021/05/01 07:17:52;;;;;;;12.07;7.47;;;9.50;90.60;;;;;;5070397;28;20040;-70
2021/05/01 07:20:21;;;;;;;10.15;7.40;;;9.60;90.50;;;;;;5071575;28;20053;-70
2021/05/01 07:22:52;;;;;;;10.30;6.60;;;9.60;90.30;;;;;;5072354;28;20058;-72
2021/05/01 07:25:24;;;;;;;9.52;6.90;;;9.70;90.40;;;;;;5072095;28;20046;-74
2021/05/01 07:28:03;;;;;;;8.32;5.88;;;9.80;90.40;;;;;;5066458;28;20446;-70
2021/05/01 07:30:40;;;;;;;9.13;5.63;;;10.00;90.20;;;;;;5069653;28;20052;-70
2021/05/01 07:33:17;;;;;;;10.18;6.85;;;10.20;90.20;;;;;;5042350;28;20044;-69
2021/05/01 07:35:49;;;;;;;6.57;4.60;;;10.50;90.00;;;;;;5060087;28;20049;-70
2021/05/01 07:38:16;;;;;;;9.50;5.00;;;10.50;89.80;;;;;;5065646;28;20048;-70
2021/05/01 07:40:44;;;;;;;9.70;5.47;;;10.50;89.60;;;;;;5052535;28;20517;-70
2021/05/01 07:43:16;;;;;;;8.52;4.30;;;10.40;89.00;;;;;;5053904;28;20047;-70
2021/05/01 07:45:46;;;;;;;7.22;4.55;;;10.50;89.20;;;;;;5059908;28;20484;-70
2021/05/01 07:48:16;;;;;;;11.40;5.63;;;10.70;89.00;;;;;;5057756;28;20087;-71
2021/05/01 07:50:44;;;;;;;11.10;6.22;;;10.80;87.50;;;;;;5052976;28;20037;-71
2021/05/01 07:53:11;;;;;;;8.55;5.53;;;10.70;86.60;;;;;;5055946;28;20039;-71
2021/05/01 07:55:38;;;;;;;9.18;5.53;;;10.60;87.30;;;;;;5053966;28;20517;-71
2021/05/01 07:58:05;;;;;;;6.50;4.40;;;10.50;86.90;;;;;;5059738;28;20052;-71
2021/05/01 08:00:31;;;;;;;8.27;4.50;;;10.50;87.30;;;;;;5053537;28;20049;-71
2021/05/01 08:03:00;;;;;;;6.95;4.50;;;10.70;87.40;;;;;;5058005;28;20040;-71
2021/05/01 08:05:26;;;;;;;9.27;5.45;;;10.80;86.60;;;;;;5059592;28;20053;-71
2021/05/01 08:07:53;;;;;;;8.75;4.68;;;10.90;86.10;;;;;;5061525;28;20158;-71
2021/05/01 08:10:25;;;;;;;8.10;5.07;;;11.00;86.20;;;;;;5059251;28;20437;-72
2021/05/01 08:12:51;;;;;;;8.68;5.40;;;11.20;85.70;;;;;;5067951;28;20041;-71
2021/05/01 08:15:18;;;;;;;7.88;4.82;;;11.30;85.50;;;;;;5069614;28;20115;-71
2021/05/01 08:17:44;;;;;;;6.30;4.78;;;11.30;85.00;;;;;;5069330;28;20098;-71
2021/05/01 08:20:13;;;;;;;7.70;4.88;;;11.20;85.00;;;;;;5071281;28;20048;-71
2021/05/01 08:22:41;;;;;;;9.55;5.18;;;11.00;85.20;;;;;;5052813;28;20036;-70
2021/05/01 08:25:10;;;;;;;7.43;4.82;;;10.80;84.60;;;;;;5068409;28;20058;-72
2021/05/01 08:27:37;;;;;;;6.88;4.00;;;10.60;84.30;;;;;;5069747;28;20123;-72
2021/05/01 08:30:06;;;;;;;8.07;3.97;;;10.40;84.90;;;;;;5069781;28;20457;-71
2021/05/01 08:32:36;;;;;;;6.70;4.75;;;10.40;84.80;;;;;;5069108;28;20048;-71
2021/05/01 08:35:03;;;;;;;7.40;4.05;;;10.50;83.20;;;;;;5069411;28;20045;-71
2021/05/01 08:37:32;;;;;;;6.63;4.78;;;10.60;83.30;;;;;;5070329;28;20500;-71
2021/05/01 08:39:59;;;;;;;6.35;3.60;;;10.80;82.90;;;;;;5069328;28;20831;-71
2021/05/01 08:42:27;;;;;;;4.97;3.13;;;11.00;83.50;;;;;;5072214;28;20052;-74
2021/05/01 08:44:56;;;;;;;6.40;4.13;;;11.30;83.10;;;;;;5073578;28;20055;-74
2021/05/01 08:47:23;;;;;;;6.93;4.15;;;11.40;81.60;;;;;;5073243;28;20041;-74
2021/05/01 08:49:49;;;;;;;6.43;3.75;;;11.50;81.70;;;;;;5073202;28;20492;-74
2021/05/01 08:52:18;;;;;;;6.47;3.78;;;11.70;82.10;;;;;;5074532;28;20048;-74
2021/05/01 08:54:46;;;;;;;7.78;3.60;;;11.80;81.10;;;;;;5056081;28;20048;-73
2021/05/01 08:57:28;;;;;;;7.63;3.58;;;11.90;81.00;;;;;;5073942;28;20040;-71
2021/05/01 08:59:55;;;;;;;6.10;3.55;;;12.10;80.00;;;;;;5059858;28;20117;-71
2021/05/01 09:02:25;;;;;;;5.30;4.10;;;12.30;79.30;;;;;;5072732;28;20072;-72
2021/05/01 09:04:53;;;;;;;4.65;2.83;;;12.50;79.10;;;;;;5074236;28;20545;-71
2021/05/01 09:07:21;;;;;;;7.38;3.40;;;12.70;79.20;;;;;;5073942;28;20040;-71
2021/05/01 09:09:54;;;;;;;4.55;3.03;;;12.90;78.50;;;;;;5073529;28;20553;-71
2021/05/01 09:12:38;;;;;;;6.10;3.35;;;13.00;78.30;;;;;;5073120;28;20044;-71
2021/05/01 09:15:18;;;;;;;4.22;2.83;;;12.90;77.70;;;;;;5072242;28;20554;-72
2021/05/01 09:17:46;;;;;;;6.05;3.13;;;12.80;78.00;;;;;;5073879;28;20036;-72
2021/05/01 09:20:17;;;;;;;5.05;2.90;;;12.70;78.40;;;;;;5070835;28;20060;-71
2021/05/01 09:22:57;;;;;;;5.18;3.05;;;12.70;78.40;;;;;;5072734;28;20029;-72
2021/05/01 09:25:30;;;;;;;6.00;2.60;;;12.80;78.10;;;;;;5073800;28;20045;-72
2021/05/01 09:28:18;;;;;;;5.50;3.05;;;13.00;77.20;;;;;;5059028;28;20122;-72
2021/05/01 09:31:07;;;;;;;5.03;3.17;;;13.10;77.60;;;;;;5073696;28;20049;-72
2021/05/01 09:33:38;;;;;;;9.60;3.50;;;13.10;76.80;;;;;;5072246;28;20045;-74
2021/05/01 09:36:10;;;;;;;7.05;3.60;;;12.80;76.00;;;;;;5052762;28;20123;-74
2021/05/01 09:38:43;;;;;;;4.70;2.80;;;12.50;74.20;;;;;;5071810;28;20120;-74
2021/05/01 09:41:20;;;;;;;7.05;2.95;;;12.30;75.50;;;;;;5072646;28;20064;-74
2021/05/01 09:44:10;;;;;;;6.10;2.95;;;12.20;75.20;;;;;;5072537;28;20040;-75
2021/05/01 09:46:37;;;;;;;3.42;2.13;;;12.00;75.80;;;;;;5072560;28;20140;-74
2021/05/01 09:49:20;;;;;;;3.03;1.95;;;11.80;77.00;;;;;;5072893;28;20051;-74
2021/05/01 09:51:54;;;;;;;4.18;2.15;;;11.70;77.30;;;;;;5073601;28;20120;-75
2021/05/01 09:54:40;;;;;;;3.70;2.35;;;11.70;77.60;;;;;;5072484;28;20050;-75
2021/05/01 09:57:10;;;;;;;3.85;2.13;;;11.60;78.10;;;;;;5062072;28;20051;-74
2021/05/01 09:59:56;;;;;;;4.03;1.92;;;11.50;78.10;;;;;;5073665;28;20496;-74
2021/05/01 10:02:33;;;;;;;4.75;1.95;;;11.50;77.80;;;;;;5072766;28;20481;-74
2021/05/01 10:05:09;;;;;;;4.10;1.85;;;11.50;77.90;;;;;;5071975;28;20101;-74
2021/05/01 10:07:51;;;;;;;3.50;1.90;;;11.60;77.90;;;;;;5073464;28;20086;-74
2021/05/01 10:10:18;;;;;;;4.13;2.22;;;11.90;77.60;;;;;;5073287;28;20033;-74
2021/05/01 10:12:45;;;;;;;4.65;2.50;;;12.20;77.30;;;;;;5073280;28;20043;-74
2021/05/01 10:15:17;;;;;;;5.82;1.98;;;12.40;77.20;;;;;;5074548;28;20047;-75
2021/05/01 10:17:48;;;;;;;4.38;2.05;;;12.70;77.60;;;;;;5065285;28;20043;-76
2021/05/01 10:20:16;;;;;;;4.90;2.38;;;13.20;77.40;;;;;;5061820;28;20601;-72
2021/05/01 10:22:47;;;;;;;4.35;2.45;;;13.50;76.60;;;;;;5051885;28;20061;-71
2021/05/01 10:25:25;;;;;;;5.22;2.10;;;13.60;74.60;;;;;;5067263;28;20041;-72
2021/05/01 10:27:55;;;;;;;4.10;2.40;;;13.40;74.80;;;;;;5065764;28;20036;-71
2021/05/01 10:33:19;;;;;;;3.10;1.90;;;12.90;74.80;;;;;;5065596;28;20041;-71
2021/05/01 10:36:04;;;;;;;3.58;2.17;;;12.70;75.10;;;;;;5072302;28;20507;-70
2021/05/01 10:38:33;;;;;;;4.55;2.10;;;12.40;74.70;;;;;;5071469;28;20040;-71
2021/05/01 10:41:01;;;;;;;4.78;2.83;;;12.30;75.10;;;;;;5060586;28;20349;-71
2021/05/01 10:43:29;;;;;;;4.32;3.00;;;12.10;74.70;;;;;;5064516;28;20538;-71
2021/05/01 10:46:07;;;;;;;5.15;2.50;;;12.00;74.20;;;;;;5069298;28;20044;-71
2021/05/01 10:48:51;;;;;;;6.15;3.53;;;11.90;74.50;;;;;;5048557;28;20048;-73
2021/05/01 10:51:23;;;;;;;4.18;2.60;;;11.80;72.00;;;;;;5062667;28;20049;-72
2021/05/01 10:54:26;;;;;;;3.50;2.17;;;11.60;73.50;;;;;;5067085;28;20043;-74
2021/05/01 10:56:55;;;;;;;6.28;3.40;;;11.60;74.70;;;;;;5022404;28;20405;-71
2021/05/01 10:59:32;;;;;;;3.83;2.17;;;11.50;73.50;;;;;;5053922;28;20044;-72
2021/05/01 11:02:00;;;;;;;6.30;3.10;;;11.50;74.30;;;;;;5058081;28;20414;-71
2021/05/01 11:04:32;;;;;;;4.07;3.00;;;11.50;73.70;;;;;;5052710;28;20067;-71
2021/05/01 11:07:29;;;;;;;8.15;3.38;;;11.50;72.90;;;;;;5064803;28;20045;-73
2021/05/01 11:10:03;;;;;;;4.10;2.60;;;11.60;72.90;;;;;;5063682;28;20122;-71
2021/05/01 11:12:38;;;;;;;4.10;2.45;;;11.60;73.20;;;;;;5064261;28;20102;-71
2021/05/01 11:15:10;;;;;;;3.17;2.13;;;11.80;73.50;;;;;;5070468;28;20139;-72
2021/05/01 11:17:51;;;;;;;3.05;1.60;;;12.00;72.50;;;;;;5071378;28;20033;-72
2021/05/01 11:20:19;;;;;;;2.72;1.45;;;12.20;73.10;;;;;;5069133;28;20049;-72
2021/05/01 11:22:50;;;;;;;5.38;2.13;;;12.60;72.80;;;;;;5069547;28;20047;-72
2021/05/01 11:25:20;;;;;;;4.53;2.20;;;12.90;72.30;;;;;;5069798;28;20044;-72
2021/05/01 11:27:49;;;;;;;3.45;1.95;;;13.30;70.20;;;;;;5083320;28;20036;-72
2021/05/01 11:30:27;;;;;;;4.05;1.55;;;13.80;70.10;;;;;;5062709;28;20094;-72
2021/05/01 11:32:54;;;;;;;3.03;1.35;;;13.90;69.80;;;;;;5070253;28;20542;-72
2021/05/01 11:35:24;;;;;;;2.05;1.25;;;13.90;70.20;;;;;;5071190;28;20565;-72
2021/05/01 11:37:53;;;;;;;3.47;1.92;;;13.90;70.70;;;;;;5071469;28;20400;-71
2021/05/01 11:40:25;;;;;;;4.70;1.83;;;13.90;70.60;;;;;;5069603;28;20053;-71
2021/05/01 11:42:54;;;;;;;4.75;1.88;;;13.80;70.40;;;;;;5069705;28;20045;-72
2021/05/01 11:45:57;;;;;;;4.15;2.28;;;13.70;70.10;;;;;;5071022;28;20048;-72
2021/05/01 11:48:36;;;;;;;5.28;2.42;;;13.50;69.70;;;;;;5063963;28;21275;-73
2021/05/01 11:51:05;;;;;;;3.58;2.20;;;13.20;69.70;;;;;;5067182;28;20036;-71
2021/05/01 11:53:32;;;;;;;2.75;1.40;;;13.10;70.00;;;;;;5064215;28;20518;-70
2021/05/01 11:56:35;;;;;;;4.43;1.88;;;12.90;70.30;;;;;;5059552;28;20037;-71
2021/05/01 11:59:09;;;;;;;;;;;12.80;70.70;;;;;;5050159;28;20516;-71
2021/05/01 12:01:58;;;;;;;2.45;1.63;;;12.70;71.00;;;;;;5065026;28;19928;-71
2021/05/01 12:04:44;;;;;;;2.55;1.50;;;12.60;70.70;;;;;;5061871;28;20060;-70
2021/05/01 12:07:18;;;;;;;3.22;1.38;;;12.50;70.90;;;;;;5066351;28;20047;-71
2021/05/01 12:09:47;;;;;;;2.60;1.30;;;12.40;71.40;;;;;;5060101;28;20025;-71
2021/05/01 12:12:17;;;;;;;2.05;1.27;;;12.50;71.70;;;;;;5067914;28;20067;-71
2021/05/01 12:14:47;;;;;;;4.50;1.80;;;12.60;70.30;;;;;;5068971;28;20049;-71
2021/05/01 12:17:15;;;;;;;2.45;1.48;;;12.60;69.20;;;;;;5072608;28;20048;-71
2021/05/01 12:19:45;;;;;;;2.17;1.15;;;13.00;68.90;;;;;;5073411;28;20044;-71
2021/05/01 12:22:31;;;;;;;1.83;0.98;;;13.40;69.20;;;;;;5075008;28;20094;-71
2021/05/01 12:24:59;;;;;;;1.90;1.00;;;13.80;69.10;;;;;;5056718;28;20491;-71
2021/05/01 12:27:47;;;;;;;2.38;0.90;;;13.90;69.00;;;;;;5074957;28;20128;-71
2021/05/01 12:30:39;;;;;;;1.58;0.70;;;14.00;68.70;;;;;;5065401;28;20040;-70
2021/05/01 12:33:22;;;;;;;3.17;1.38;;;14.10;69.20;;;;;;5065242;28;20095;-74
2021/05/01 12:35:58;;;;;;;3.15;1.45;;;14.00;68.70;;;;;;5065644;28;20036;-74
2021/05/01 12:38:27;;;;;;;1.95;0.75;;;14.00;69.40;;;;;;5067593;28;20037;-74
2021/05/01 12:43:42;;;;;;;4.28;1.33;;;13.90;69.00;;;;;;5058563;28;20037;-71
2021/05/01 12:46:29;;;;;;;1.90;1.20;;;13.80;68.90;;;;;;5060976;28;20052;-70
2021/05/01 12:48:57;;;;;;;2.20;0.85;;;13.60;69.10;;;;;;5067843;28;20054;-71
2021/05/01 12:51:28;;;;;;;2.33;1.00;;;13.40;69.40;;;;;;5060875;28;20067;-71
2021/05/01 12:54:17;;;;;;;1.95;1.10;;;13.30;70.00;;;;;;5066360;28;20262;-71
2021/05/01 12:56:55;;;;;;;5.43;1.38;;;13.30;69.90;;;;;;5061419;28;20567;-70
2021/05/01 12:59:29;;;;;;;4.40;1.73;;;13.10;70.20;;;;;;5055320;28;20805;-70
2021/05/01 13:01:55;;;;;;;2.38;1.40;;;13.00;70.00;;;;;;5056936;28;20102;-71
2021/05/01 13:04:23;;;;;;;3.13;1.42;;;12.90;70.70;;;;;;5054887;28;20045;-70
2021/05/01 13:06:51;;;;;;;2.10;0.95;;;12.80;70.70;;;;;;5064844;28;20033;-72
2021/05/01 13:09:22;;;;;;;3.28;1.60;;;12.80;71.10;;;;;;5063818;28;20078;-71